createdAt,value
2024-04-08T14:53:18.372Z,92.85
2024-04-08T14:55:47.574Z,92.14
2024-04-08T14:58:14.184Z,91.88
2024-04-08T15:00:54.135Z,92.29
2024-04-08T15:03:25.190Z,92.64
2024-04-08T15:05:55.079Z,91.67
2024-04-08T15:08:24.111Z,94.93
2024-04-08T15:11:05.396Z,95.35
2024-04-08T15:13:32.114Z,94.09
2024-04-08T15:15:58.666Z,93.33
2024-04-08T15:18:26.507Z,93.47
2024-04-08T15:21:00.395Z,95.61
2024-04-08T15:23:27.160Z,94.92
2024-04-08T15:25:59.477Z,96.70
2024-04-08T15:28:25.994Z,96.91
2024-04-08T15:30:59.557Z,96.39
2024-04-08T15:33:29.609Z,96.16
2024-04-08T15:36:10.207Z,96.39
2024-04-08T15:38:39.676Z,96.22
2024-04-08T15:41:06.539Z,96.61
2024-04-08T15:43:33.080Z,96.69
2024-04-08T15:46:07.105Z,96.50
2024-04-08T15:48:36.567Z,95.76
2024-04-08T15:51:04.617Z,96.42
2024-04-08T15:53:32.124Z,94.81
2024-04-08T15:56:02.349Z,94.74
2024-04-08T15:58:35.575Z,94.38
2024-04-08T16:01:05.016Z,95.03
2024-04-08T16:03:35.080Z,95.37
2024-04-08T16:06:13.427Z,96.19
2024-04-08T16:08:47.034Z,96.99
2024-04-08T16:11:30.274Z,96.82
2024-04-08T16:16:44.624Z,98.20
2024-04-08T16:19:11.269Z,99.65
2024-04-08T16:21:37.974Z,99.88
2024-04-08T16:24:07.738Z,99.83
2024-04-08T16:26:37.054Z,99.19
2024-04-08T16:29:11.500Z,98.90
2024-04-08T16:31:38.248Z,99.31
2024-04-08T16:34:04.924Z,99.99
2024-04-08T16:36:40.534Z,100.00
2024-04-08T16:39:08.276Z,100.00
2024-04-08T16:41:38.387Z,100.00
2024-04-08T16:44:08.692Z,100.00
2024-04-08T16:46:40.159Z,100.00
2024-04-08T16:49:06.849Z,100.00
2024-04-08T16:51:39.435Z,100.00
2024-04-08T16:54:08.675Z,100.00
2024-04-08T16:56:35.530Z,100.00
2024-04-08T16:59:05.983Z,100.00
2024-04-08T17:01:35.871Z,100.00
2024-04-08T17:04:05.658Z,100.00
2024-04-08T17:06:50.290Z,100.00
2024-04-08T17:09:16.955Z,100.00
2024-04-08T17:11:43.613Z,100.00
2024-04-08T17:14:11.236Z,100.00
2024-04-08T17:16:40.912Z,100.00
2024-04-08T17:19:07.823Z,100.00
2024-04-08T17:21:37.451Z,100.00
2024-04-08T17:24:05.644Z,100.00
2024-04-08T17:26:32.530Z,100.00
2024-04-08T17:29:06.239Z,100.00
2024-04-08T17:31:32.874Z,100.00
2024-04-08T17:33:59.506Z,100.00
2024-04-08T17:36:26.454Z,100.00
2024-04-08T17:38:53.525Z,100.00
2024-04-08T17:41:21.474Z,100.00
2024-04-08T17:43:56.618Z,100.00
2024-04-08T17:46:24.527Z,100.00
2024-04-08T17:48:56.922Z,100.00
2024-04-08T17:51:23.604Z,100.00
2024-04-08T17:53:53.923Z,100.00
2024-04-08T17:56:23.720Z,100.00
2024-04-08T17:58:50.536Z,100.00
2024-04-08T18:01:20.096Z,100.00
2024-04-08T18:03:58.390Z,100.00
2024-04-08T18:06:28.336Z,100.00
2024-04-08T18:08:58.074Z,100.00
2024-04-08T18:11:29.645Z,100.00
2024-04-08T18:13:56.216Z,100.00
2024-04-08T18:16:26.277Z,100.00
2024-04-08T18:18:53.571Z,100.00
2024-04-08T18:24:05.923Z,100.00
2024-04-08T18:26:32.500Z,100.00
2024-04-08T18:28:59.078Z,100.00
2024-04-08T18:31:25.712Z,100.00
2024-04-08T18:33:54.767Z,100.00
2024-04-08T18:36:24.350Z,100.00
2024-04-08T18:38:52.039Z,100.00
2024-04-08T18:41:27.879Z,100.00
2024-04-08T18:46:35.190Z,100.00
2024-04-08T18:49:02.844Z,100.00
2024-04-08T18:51:32.381Z,100.00
2024-04-08T18:54:03.807Z,100.00
2024-04-08T18:56:33.323Z,100.00
2024-04-08T18:59:02.670Z,100.00
2024-04-08T19:01:38.873Z,100.00
2024-04-08T19:04:06.834Z,100.00
2024-04-08T19:06:40.948Z,100.00
2024-04-08T19:09:13.329Z,100.00
2024-04-08T19:11:48.341Z,100.00
2024-04-08T19:14:22.880Z,100.00
2024-04-08T19:17:01.903Z,100.00
2024-04-08T19:19:29.045Z,100.00
2024-04-08T19:22:08.964Z,100.00
2024-04-08T19:24:39.994Z,100.00
2024-04-08T19:27:09.840Z,100.00
2024-04-08T19:29:39.049Z,100.00
2024-04-08T19:32:10.003Z,100.00
2024-04-08T19:34:37.297Z,100.00
2024-04-08T19:37:07.898Z,100.00
2024-04-08T19:39:37.258Z,100.00
2024-04-08T19:42:06.073Z,100.00
2024-04-08T19:44:38.632Z,100.00
2024-04-08T19:47:05.733Z,100.00
2024-04-08T19:49:43.519Z,100.00
2024-04-08T19:52:13.109Z,100.00
2024-04-08T19:54:42.754Z,100.00
2024-04-08T19:57:09.417Z,100.00
2024-04-08T19:59:39.630Z,100.00
2024-04-08T20:02:10.861Z,100.00
2024-04-08T20:04:47.337Z,100.00
2024-04-08T20:07:13.855Z,100.00
2024-04-08T20:09:43.630Z,100.00
2024-04-08T20:12:11.811Z,100.00
2024-04-08T20:14:38.370Z,100.00
2024-04-08T20:17:05.528Z,100.00
2024-04-08T20:19:35.904Z,100.00
2024-04-08T20:22:03.148Z,100.00
2024-04-08T20:24:32.999Z,100.00
2024-04-08T20:26:59.735Z,100.00
2024-04-08T20:29:26.364Z,100.00
2024-04-08T20:32:02.544Z,100.00
2024-04-08T20:34:29.273Z,100.00
2024-04-08T20:37:05.280Z,100.00
2024-04-08T20:39:36.941Z,100.00
2024-04-08T20:42:06.231Z,100.00
2024-04-08T20:44:32.743Z,100.00
2024-04-08T20:47:00.722Z,100.00
2024-04-08T20:49:29.578Z,100.00
2024-04-08T20:51:58.188Z,100.00
2024-04-08T20:54:28.378Z,100.00
2024-04-08T20:56:54.978Z,100.00
2024-04-08T20:59:21.635Z,100.00
2024-04-08T21:01:48.874Z,100.00
2024-04-08T21:04:18.592Z,100.00
2024-04-08T21:06:45.462Z,100.00
2024-04-08T21:09:15.108Z,100.00
2024-04-08T21:11:43.246Z,100.00
2024-04-08T21:14:12.334Z,100.00
2024-04-08T21:16:43.974Z,100.00
2024-04-08T21:19:10.699Z,100.00
2024-04-08T21:21:50.703Z,100.00
2024-04-08T21:26:58.464Z,100.00
2024-04-08T21:29:25.704Z,100.00
2024-04-08T21:31:55.388Z,100.00
2024-04-08T21:34:25.424Z,100.00
2024-04-08T21:36:56.411Z,100.00
2024-04-08T21:39:23.240Z,100.00
2024-04-08T21:41:50.330Z,100.00
2024-04-08T21:44:19.662Z,100.00
2024-04-08T21:46:46.376Z,100.00
2024-04-08T21:49:17.021Z,100.00
2024-04-08T21:51:44.386Z,100.00
2024-04-08T21:54:13.401Z,100.00
2024-04-08T21:56:46.530Z,100.00
2024-04-08T21:59:16.093Z,100.00
2024-04-08T22:01:49.041Z,100.00
2024-04-08T22:04:15.804Z,100.00
2024-04-08T22:06:42.521Z,100.00
2024-04-08T22:09:14.521Z,100.00
2024-04-08T22:11:43.808Z,100.00
2024-04-08T22:14:10.321Z,100.00
2024-04-08T22:16:37.025Z,100.00
2024-04-08T22:19:03.711Z,100.00
2024-04-08T22:21:33.402Z,100.00
2024-04-08T22:24:00.271Z,100.00
2024-04-08T22:26:26.871Z,100.00
2024-04-08T22:28:57.722Z,100.00
2024-04-08T22:31:24.405Z,100.00
2024-04-08T22:33:51.085Z,100.00
2024-04-08T22:36:18.105Z,100.00
2024-04-08T22:38:47.124Z,100.00
2024-04-08T22:41:19.263Z,100.00
2024-04-08T22:43:50.495Z,100.00
2024-04-08T22:46:17.014Z,100.00
2024-04-08T22:48:54.122Z,100.00
2024-04-08T22:51:28.136Z,100.00
2024-04-08T22:53:57.841Z,100.00
2024-04-08T22:56:29.503Z,100.00
2024-04-08T22:58:58.880Z,100.00
2024-04-08T23:01:25.372Z,100.00
2024-04-08T23:03:52.937Z,100.00
2024-04-08T23:06:23.062Z,100.00
2024-04-08T23:08:51.836Z,100.00
2024-04-08T23:11:19.795Z,100.00
2024-04-08T23:13:46.390Z,100.00
2024-04-08T23:16:12.892Z,100.00
2024-04-08T23:18:42.646Z,100.00
2024-04-08T23:21:12.224Z,100.00
2024-04-08T23:23:39.417Z,100.00
2024-04-08T23:26:12.421Z,100.00
2024-04-08T23:28:47.384Z,100.00
2024-04-08T23:31:16.713Z,100.00
2024-04-08T23:33:43.365Z,100.00
2024-04-08T23:36:13.159Z,100.00
2024-04-08T23:38:40.711Z,100.00
2024-04-08T23:41:07.574Z,100.00
2024-04-08T23:43:34.645Z,100.00
2024-04-08T23:46:05.584Z,100.00
2024-04-08T23:48:33.435Z,100.00
2024-04-08T23:51:08.596Z,100.00
2024-04-08T23:53:35.423Z,100.00
2024-04-08T23:56:03.352Z,100.00
2024-04-08T23:58:32.022Z,100.00
